sensor_id;sensor_type;location;lat;lon;timestamp;temperature;humidity
25871;DHT22;13689;48.590;7.752;2023-01-13T00:02:15;11.80;74.00
25871;DHT22;13689;48.590;7.752;2023-01-13T00:04:41;11.80;74.10
25871;DHT22;13689;48.590;7.752;2023-01-13T00:07:06;11.80;74.10
25871;DHT22;13689;48.590;7.752;2023-01-13T00:09:32;11.80;74.10
25871;DHT22;13689;48.590;7.752;2023-01-13T00:11:57;11.80;74.20
25871;DHT22;13689;48.590;7.752;2023-01-13T00:14:23;11.80;75.00
25871;DHT22;13689;48.590;7.752;2023-01-13T00:16:50;11.80;74.30
25871;DHT22;13689;48.590;7.752;2023-01-13T00:19:16;11.80;74.30
25871;DHT22;13689;48.590;7.752;2023-01-13T00:21:42;11.70;74.30
25871;DHT22;13689;48.590;7.752;2023-01-13T00:24:09;11.80;74.40
25871;DHT22;13689;48.590;7.752;2023-01-13T00:26:35;11.80;74.30
25871;DHT22;13689;48.590;7.752;2023-01-13T00:29:01;11.70;74.40
25871;DHT22;13689;48.590;7.752;2023-01-13T00:31:28;11.70;74.50
25871;DHT22;13689;48.590;7.752;2023-01-13T00:34:00;11.70;74.60
25871;DHT22;13689;48.590;7.752;2023-01-13T00:36:27;11.70;74.80
25871;DHT22;13689;48.590;7.752;2023-01-13T00:38:52;11.70;74.80
25871;DHT22;13689;48.590;7.752;2023-01-13T00:41:21;11.70;74.90
25871;DHT22;13689;48.590;7.752;2023-01-13T00:43:47;11.70;75.10
25871;DHT22;13689;48.590;7.752;2023-01-13T00:46:16;11.70;75.20
25871;DHT22;13689;48.590;7.752;2023-01-13T00:48:42;11.70;75.40
25871;DHT22;13689;48.590;7.752;2023-01-13T00:51:11;11.70;75.50
25871;DHT22;13689;48.590;7.752;2023-01-13T00:53:40;11.70;75.70
25871;DHT22;13689;48.590;7.752;2023-01-13T00:56:15;11.70;75.80
25871;DHT22;13689;48.590;7.752;2023-01-13T00:58:43;11.70;76.10
25871;DHT22;13689;48.590;7.752;2023-01-13T01:01:11;11.70;76.20
25871;DHT22;13689;48.590;7.752;2023-01-13T01:03:38;11.70;76.50
25871;DHT22;13689;48.590;7.752;2023-01-13T01:06:13;11.70;76.60
25871;DHT22;13689;48.590;7.752;2023-01-13T01:08:40;11.70;76.80
25871;DHT22;13689;48.590;7.752;2023-01-13T01:11:10;11.70;76.90
25871;DHT22;13689;48.590;7.752;2023-01-13T01:13:36;11.70;77.00
25871;DHT22;13689;48.590;7.752;2023-01-13T01:16:06;11.70;77.00
25871;DHT22;13689;48.590;7.752;2023-01-13T01:18:37;11.70;77.10
25871;DHT22;13689;48.590;7.752;2023-01-13T01:21:04;11.60;77.10
25871;DHT22;13689;48.590;7.752;2023-01-13T01:23:31;11.70;77.20
25871;DHT22;13689;48.590;7.752;2023-01-13T01:26:01;11.60;77.20
25871;DHT22;13689;48.590;7.752;2023-01-13T01:28:27;11.60;77.20
25871;DHT22;13689;48.590;7.752;2023-01-13T01:30:52;11.70;77.30
25871;DHT22;13689;48.590;7.752;2023-01-13T01:33:20;11.60;77.40
25871;DHT22;13689;48.590;7.752;2023-01-13T01:35:46;11.60;77.60
25871;DHT22;13689;48.590;7.752;2023-01-13T01:38:11;11.60;77.70
25871;DHT22;13689;48.590;7.752;2023-01-13T01:40:37;11.60;77.80
25871;DHT22;13689;48.590;7.752;2023-01-13T01:43:18;11.60;77.90
25871;DHT22;13689;48.590;7.752;2023-01-13T01:46:02;11.60;78.00
25871;DHT22;13689;48.590;7.752;2023-01-13T01:48:33;11.60;78.00
25871;DHT22;13689;48.590;7.752;2023-01-13T01:51:01;11.60;78.20
25871;DHT22;13689;48.590;7.752;2023-01-13T01:53:27;11.60;78.30
25871;DHT22;13689;48.590;7.752;2023-01-13T01:55:55;11.60;78.30
25871;DHT22;13689;48.590;7.752;2023-01-13T01:58:26;11.50;78.30
25871;DHT22;13689;48.590;7.752;2023-01-13T02:00:53;11.60;78.50
25871;DHT22;13689;48.590;7.752;2023-01-13T02:03:19;11.60;78.50
25871;DHT22;13689;48.590;7.752;2023-01-13T02:05:45;11.60;78.60
25871;DHT22;13689;48.590;7.752;2023-01-13T02:08:12;11.60;78.50
25871;DHT22;13689;48.590;7.752;2023-01-13T02:10:39;11.60;78.60
25871;DHT22;13689;48.590;7.752;2023-01-13T02:13:08;11.50;78.50
25871;DHT22;13689;48.590;7.752;2023-01-13T02:16:28;11.60;78.60
25871;DHT22;13689;48.590;7.752;2023-01-13T02:18:59;11.60;78.60
25871;DHT22;13689;48.590;7.752;2023-01-13T02:22:09;11.60;78.40
25871;DHT22;13689;48.590;7.752;2023-01-13T02:25:04;11.60;78.40
25871;DHT22;13689;48.590;7.752;2023-01-13T02:30:44;11.60;78.30
25871;DHT22;13689;48.590;7.752;2023-01-13T02:41:55;11.60;78.00
25871;DHT22;13689;48.590;7.752;2023-01-13T02:44:47;11.60;78.00
25871;DHT22;13689;48.590;7.752;2023-01-13T02:47:18;11.60;78.00
25871;DHT22;13689;48.590;7.752;2023-01-13T02:49:57;11.60;77.90
25871;DHT22;13689;48.590;7.752;2023-01-13T02:52:25;11.60;77.80
25871;DHT22;13689;48.590;7.752;2023-01-13T02:55:05;11.60;77.80
25871;DHT22;13689;48.590;7.752;2023-01-13T02:57:33;11.60;77.70
25871;DHT22;13689;48.590;7.752;2023-01-13T03:00:00;11.60;77.60
25871;DHT22;13689;48.590;7.752;2023-01-13T03:02:27;11.60;77.60
25871;DHT22;13689;48.590;7.752;2023-01-13T03:04:55;11.60;77.50
25871;DHT22;13689;48.590;7.752;2023-01-13T03:07:44;11.60;77.50
25871;DHT22;13689;48.590;7.752;2023-01-13T03:10:36;11.60;77.40
25871;DHT22;13689;48.590;7.752;2023-01-13T03:16:04;11.60;77.30
25871;DHT22;13689;48.590;7.752;2023-01-13T03:21:24;11.60;77.30
25871;DHT22;13689;48.590;7.752;2023-01-13T03:23:53;11.60;77.30
25871;DHT22;13689;48.590;7.752;2023-01-13T03:31:31;11.60;77.40
25871;DHT22;13689;48.590;7.752;2023-01-13T03:34:13;11.60;77.40
25871;DHT22;13689;48.590;7.752;2023-01-13T03:36:43;11.60;77.60
25871;DHT22;13689;48.590;7.752;2023-01-13T03:39:14;11.60;77.60
25871;DHT22;13689;48.590;7.752;2023-01-13T03:41:56;11.60;77.70
25871;DHT22;13689;48.590;7.752;2023-01-13T03:44:29;11.60;77.80
25871;DHT22;13689;48.590;7.752;2023-01-13T03:50:19;11.60;78.00
25871;DHT22;13689;48.590;7.752;2023-01-13T03:52:52;11.60;78.20
25871;DHT22;13689;48.590;7.752;2023-01-13T03:55:25;11.60;78.40
25871;DHT22;13689;48.590;7.752;2023-01-13T03:57:54;11.50;78.50
25871;DHT22;13689;48.590;7.752;2023-01-13T04:00:25;11.50;78.60
25871;DHT22;13689;48.590;7.752;2023-01-13T04:03:04;11.50;78.80
25871;DHT22;13689;48.590;7.752;2023-01-13T04:05:33;11.50;78.80
25871;DHT22;13689;48.590;7.752;2023-01-13T04:08:21;11.50;78.90
25871;DHT22;13689;48.590;7.752;2023-01-13T04:11:04;11.50;79.00
25871;DHT22;13689;48.590;7.752;2023-01-13T04:13:35;11.50;79.20
25871;DHT22;13689;48.590;7.752;2023-01-13T04:16:05;11.50;79.20
25871;DHT22;13689;48.590;7.752;2023-01-13T04:18:32;11.50;79.30
25871;DHT22;13689;48.590;7.752;2023-01-13T04:21:01;11.50;79.30
25871;DHT22;13689;48.590;7.752;2023-01-13T04:23:27;11.50;79.30
25871;DHT22;13689;48.590;7.752;2023-01-13T04:25:54;11.50;79.40
25871;DHT22;13689;48.590;7.752;2023-01-13T04:28:20;11.50;79.50
25871;DHT22;13689;48.590;7.752;2023-01-13T04:30:46;11.50;79.50
25871;DHT22;13689;48.590;7.752;2023-01-13T04:33:13;11.40;79.60
25871;DHT22;13689;48.590;7.752;2023-01-13T04:35:39;11.50;79.60
25871;DHT22;13689;48.590;7.752;2023-01-13T04:38:09;11.40;79.70
25871;DHT22;13689;48.590;7.752;2023-01-13T04:40:35;11.40;79.80
25871;DHT22;13689;48.590;7.752;2023-01-13T04:43:01;11.40;79.80
25871;DHT22;13689;48.590;7.752;2023-01-13T04:45:26;11.40;79.80
25871;DHT22;13689;48.590;7.752;2023-01-13T04:47:52;11.40;80.00
25871;DHT22;13689;48.590;7.752;2023-01-13T04:50:18;11.40;80.00
25871;DHT22;13689;48.590;7.752;2023-01-13T04:52:48;11.40;80.10
25871;DHT22;13689;48.590;7.752;2023-01-13T04:55:15;11.40;80.10
25871;DHT22;13689;48.590;7.752;2023-01-13T04:57:44;11.40;80.00
25871;DHT22;13689;48.590;7.752;2023-01-13T05:00:12;11.40;80.20
25871;DHT22;13689;48.590;7.752;2023-01-13T05:02:39;11.40;80.30
25871;DHT22;13689;48.590;7.752;2023-01-13T05:05:05;11.40;80.30
25871;DHT22;13689;48.590;7.752;2023-01-13T05:07:32;11.30;80.20
25871;DHT22;13689;48.590;7.752;2023-01-13T05:09:57;11.30;80.40
25871;DHT22;13689;48.590;7.752;2023-01-13T05:12:23;11.30;80.50
25871;DHT22;13689;48.590;7.752;2023-01-13T05:15:12;11.30;80.60
25871;DHT22;13689;48.590;7.752;2023-01-13T05:17:56;11.30;80.70
25871;DHT22;13689;48.590;7.752;2023-01-13T05:20:22;11.30;80.70
25871;DHT22;13689;48.590;7.752;2023-01-13T05:22:48;11.30;80.80
25871;DHT22;13689;48.590;7.752;2023-01-13T05:25:34;11.30;80.80
25871;DHT22;13689;48.590;7.752;2023-01-13T05:28:02;11.30;80.80
25871;DHT22;13689;48.590;7.752;2023-01-13T05:30:30;11.30;80.70
25871;DHT22;13689;48.590;7.752;2023-01-13T05:32:56;11.40;80.70
25871;DHT22;13689;48.590;7.752;2023-01-13T05:35:22;11.40;80.60
25871;DHT22;13689;48.590;7.752;2023-01-13T05:37:48;11.30;80.60
25871;DHT22;13689;48.590;7.752;2023-01-13T05:40:16;11.30;80.70
25871;DHT22;13689;48.590;7.752;2023-01-13T05:43:21;11.40;80.60
25871;DHT22;13689;48.590;7.752;2023-01-13T05:46:07;11.40;80.60
25871;DHT22;13689;48.590;7.752;2023-01-13T05:48:36;11.40;80.60
25871;DHT22;13689;48.590;7.752;2023-01-13T05:51:03;11.30;80.60
25871;DHT22;13689;48.590;7.752;2023-01-13T05:53:30;11.40;80.70
25871;DHT22;13689;48.590;7.752;2023-01-13T05:55:56;11.30;80.60
25871;DHT22;13689;48.590;7.752;2023-01-13T05:58:24;11.30;80.80
25871;DHT22;13689;48.590;7.752;2023-01-13T06:00:50;11.40;81.00
25871;DHT22;13689;48.590;7.752;2023-01-13T06:03:16;11.40;81.10
25871;DHT22;13689;48.590;7.752;2023-01-13T06:05:44;11.30;81.20
25871;DHT22;13689;48.590;7.752;2023-01-13T06:08:10;11.30;81.50
25871;DHT22;13689;48.590;7.752;2023-01-13T06:10:35;11.30;81.40
25871;DHT22;13689;48.590;7.752;2023-01-13T06:13:02;11.30;81.60
25871;DHT22;13689;48.590;7.752;2023-01-13T06:15:28;11.30;81.80
25871;DHT22;13689;48.590;7.752;2023-01-13T06:17:53;11.30;81.90
25871;DHT22;13689;48.590;7.752;2023-01-13T06:20:19;11.30;81.80
25871;DHT22;13689;48.590;7.752;2023-01-13T06:22:49;11.30;81.90
25871;DHT22;13689;48.590;7.752;2023-01-13T06:28:01;11.30;82.00
25871;DHT22;13689;48.590;7.752;2023-01-13T06:30:43;11.30;82.10
25871;DHT22;13689;48.590;7.752;2023-01-13T06:33:12;11.30;82.10
25871;DHT22;13689;48.590;7.752;2023-01-13T06:35:42;11.30;82.10
25871;DHT22;13689;48.590;7.752;2023-01-13T06:38:10;11.30;82.50
25871;DHT22;13689;48.590;7.752;2023-01-13T06:40:37;11.40;82.70
25871;DHT22;13689;48.590;7.752;2023-01-13T06:43:05;11.50;83.20
25871;DHT22;13689;48.590;7.752;2023-01-13T06:45:41;11.70;82.90
25871;DHT22;13689;48.590;7.752;2023-01-13T06:48:07;11.70;82.50
25871;DHT22;13689;48.590;7.752;2023-01-13T06:50:33;11.60;82.40
25871;DHT22;13689;48.590;7.752;2023-01-13T06:52:59;11.60;82.60
25871;DHT22;13689;48.590;7.752;2023-01-13T06:55:24;11.60;82.60
25871;DHT22;13689;48.590;7.752;2023-01-13T06:57:52;11.50;82.60
25871;DHT22;13689;48.590;7.752;2023-01-13T07:00:18;11.50;82.70
25871;DHT22;13689;48.590;7.752;2023-01-13T07:02:43;11.40;82.50
25871;DHT22;13689;48.590;7.752;2023-01-13T07:05:09;11.40;82.70
25871;DHT22;13689;48.590;7.752;2023-01-13T07:07:35;11.40;82.80
25871;DHT22;13689;48.590;7.752;2023-01-13T07:10:01;11.30;83.00
25871;DHT22;13689;48.590;7.752;2023-01-13T07:12:27;11.30;83.10
25871;DHT22;13689;48.590;7.752;2023-01-13T07:14:53;11.20;83.30
25871;DHT22;13689;48.590;7.752;2023-01-13T07:17:37;11.10;83.80
25871;DHT22;13689;48.590;7.752;2023-01-13T07:20:03;11.10;84.30
25871;DHT22;13689;48.590;7.752;2023-01-13T07:22:28;11.10;84.70
25871;DHT22;13689;48.590;7.752;2023-01-13T07:24:54;11.00;85.10
25871;DHT22;13689;48.590;7.752;2023-01-13T07:27:21;11.00;85.30
25871;DHT22;13689;48.590;7.752;2023-01-13T07:29:46;10.90;85.60
25871;DHT22;13689;48.590;7.752;2023-01-13T07:32:12;10.90;86.00
25871;DHT22;13689;48.590;7.752;2023-01-13T07:34:37;10.80;86.40
25871;DHT22;13689;48.590;7.752;2023-01-13T07:37:03;10.70;86.90
25871;DHT22;13689;48.590;7.752;2023-01-13T07:39:28;10.60;87.50
25871;DHT22;13689;48.590;7.752;2023-01-13T07:41:54;10.60;88.00
25871;DHT22;13689;48.590;7.752;2023-01-13T07:44:38;10.50;88.70
25871;DHT22;13689;48.590;7.752;2023-01-13T07:47:04;10.50;89.40
25871;DHT22;13689;48.590;7.752;2023-01-13T07:49:30;10.40;89.90
25871;DHT22;13689;48.590;7.752;2023-01-13T07:51:56;10.40;90.20
25871;DHT22;13689;48.590;7.752;2023-01-13T07:54:21;10.40;90.40
25871;DHT22;13689;48.590;7.752;2023-01-13T07:56:47;10.40;90.50
25871;DHT22;13689;48.590;7.752;2023-01-13T07:59:12;10.40;90.50
25871;DHT22;13689;48.590;7.752;2023-01-13T08:01:38;10.30;90.60
25871;DHT22;13689;48.590;7.752;2023-01-13T08:04:04;10.30;90.70
25871;DHT22;13689;48.590;7.752;2023-01-13T08:06:29;10.30;90.80
25871;DHT22;13689;48.590;7.752;2023-01-13T08:08:55;10.30;90.80
25871;DHT22;13689;48.590;7.752;2023-01-13T08:11:20;10.30;91.00
25871;DHT22;13689;48.590;7.752;2023-01-13T08:13:46;10.30;91.10
25871;DHT22;13689;48.590;7.752;2023-01-13T08:16:13;10.30;91.10
25871;DHT22;13689;48.590;7.752;2023-01-13T08:18:39;10.30;91.10
25871;DHT22;13689;48.590;7.752;2023-01-13T08:21:07;10.30;91.10
25871;DHT22;13689;48.590;7.752;2023-01-13T08:23:33;10.20;91.30
25871;DHT22;13689;48.590;7.752;2023-01-13T08:26:05;10.20;91.40
25871;DHT22;13689;48.590;7.752;2023-01-13T08:28:31;10.20;91.50
25871;DHT22;13689;48.590;7.752;2023-01-13T08:31:01;10.20;91.60
25871;DHT22;13689;48.590;7.752;2023-01-13T08:33:27;10.20;91.60
25871;DHT22;13689;48.590;7.752;2023-01-13T08:35:53;10.20;91.80
25871;DHT22;13689;48.590;7.752;2023-01-13T08:38:19;10.10;91.80
25871;DHT22;13689;48.590;7.752;2023-01-13T08:40:46;10.10;91.90
25871;DHT22;13689;48.590;7.752;2023-01-13T08:43:13;10.10;91.90
25871;DHT22;13689;48.590;7.752;2023-01-13T08:45:38;10.00;92.20
25871;DHT22;13689;48.590;7.752;2023-01-13T08:48:04;10.00;92.00
25871;DHT22;13689;48.590;7.752;2023-01-13T08:50:30;10.00;92.10
25871;DHT22;13689;48.590;7.752;2023-01-13T08:52:56;10.00;92.20
25871;DHT22;13689;48.590;7.752;2023-01-13T08:55:22;9.90;92.30
25871;DHT22;13689;48.590;7.752;2023-01-13T08:57:47;10.00;92.30
25871;DHT22;13689;48.590;7.752;2023-01-13T09:00:14;10.00;92.30
25871;DHT22;13689;48.590;7.752;2023-01-13T09:02:41;10.10;92.30
25871;DHT22;13689;48.590;7.752;2023-01-13T09:05:08;10.00;92.30
25871;DHT22;13689;48.590;7.752;2023-01-13T09:07:36;10.00;92.30
25871;DHT22;13689;48.590;7.752;2023-01-13T09:10:04;10.00;92.30
25871;DHT22;13689;48.590;7.752;2023-01-13T09:12:30;10.10;92.30
25871;DHT22;13689;48.590;7.752;2023-01-13T09:15:14;10.10;92.40
25871;DHT22;13689;48.590;7.752;2023-01-13T09:17:43;10.20;92.30
25871;DHT22;13689;48.590;7.752;2023-01-13T09:20:09;10.20;92.40
25871;DHT22;13689;48.590;7.752;2023-01-13T09:22:35;10.20;92.40
25871;DHT22;13689;48.590;7.752;2023-01-13T09:25:02;10.30;92.50
25871;DHT22;13689;48.590;7.752;2023-01-13T09:27:28;10.30;92.40
25871;DHT22;13689;48.590;7.752;2023-01-13T09:29:54;10.30;92.50
25871;DHT22;13689;48.590;7.752;2023-01-13T09:32:19;10.30;92.40
25871;DHT22;13689;48.590;7.752;2023-01-13T09:34:45;10.30;92.60
25871;DHT22;13689;48.590;7.752;2023-01-13T09:37:33;10.20;92.50
25871;DHT22;13689;48.590;7.752;2023-01-13T09:40:00;10.20;92.70
25871;DHT22;13689;48.590;7.752;2023-01-13T09:45:50;10.20;92.90
25871;DHT22;13689;48.590;7.752;2023-01-13T09:51:09;10.20;92.50
25871;DHT22;13689;48.590;7.752;2023-01-13T09:53:43;10.00;92.30
25871;DHT22;13689;48.590;7.752;2023-01-13T09:56:12;9.90;92.30
25871;DHT22;13689;48.590;7.752;2023-01-13T09:58:38;9.80;92.40
25871;DHT22;13689;48.590;7.752;2023-01-13T10:03:52;9.80;92.60
25871;DHT22;13689;48.590;7.752;2023-01-13T10:06:36;9.70;92.40
25871;DHT22;13689;48.590;7.752;2023-01-13T10:09:20;9.70;92.50
25871;DHT22;13689;48.590;7.752;2023-01-13T10:11:48;9.70;92.30
25871;DHT22;13689;48.590;7.752;2023-01-13T10:14:36;9.70;92.20
25871;DHT22;13689;48.590;7.752;2023-01-13T10:19:54;9.70;92.20
25871;DHT22;13689;48.590;7.752;2023-01-13T10:22:43;9.80;92.20
25871;DHT22;13689;48.590;7.752;2023-01-13T10:27:47;9.80;92.40
25871;DHT22;13689;48.590;7.752;2023-01-13T10:32:53;9.80;92.30
25871;DHT22;13689;48.590;7.752;2023-01-13T10:38:26;9.90;92.40
25871;DHT22;13689;48.590;7.752;2023-01-13T10:41:04;9.90;92.30
25871;DHT22;13689;48.590;7.752;2023-01-13T10:43:30;9.90;92.30
25871;DHT22;13689;48.590;7.752;2023-01-13T10:46:09;9.90;92.30
25871;DHT22;13689;48.590;7.752;2023-01-13T10:48:39;10.00;92.30
25871;DHT22;13689;48.590;7.752;2023-01-13T10:51:29;10.10;92.20
25871;DHT22;13689;48.590;7.752;2023-01-13T10:53:58;10.10;92.00
25871;DHT22;13689;48.590;7.752;2023-01-13T10:56:28;10.20;92.00
25871;DHT22;13689;48.590;7.752;2023-01-13T11:01:59;10.20;92.00
25871;DHT22;13689;48.590;7.752;2023-01-13T11:07:31;10.20;92.00
25871;DHT22;13689;48.590;7.752;2023-01-13T11:10:20;10.10;91.90
25871;DHT22;13689;48.590;7.752;2023-01-13T11:13:10;10.00;91.90
25871;DHT22;13689;48.590;7.752;2023-01-13T11:15:42;10.00;92.00
25871;DHT22;13689;48.590;7.752;2023-01-13T11:21:19;9.90;92.20
25871;DHT22;13689;48.590;7.752;2023-01-13T11:23:49;10.00;91.80
25871;DHT22;13689;48.590;7.752;2023-01-13T11:26:25;9.90;91.70
25871;DHT22;13689;48.590;7.752;2023-01-13T11:29:10;10.00;91.70
25871;DHT22;13689;48.590;7.752;2023-01-13T11:32:09;9.90;91.50
25871;DHT22;13689;48.590;7.752;2023-01-13T11:34:38;10.00;91.40
25871;DHT22;13689;48.590;7.752;2023-01-13T11:37:36;10.00;91.20
25871;DHT22;13689;48.590;7.752;2023-01-13T11:40:16;10.00;91.00
25871;DHT22;13689;48.590;7.752;2023-01-13T11:42:50;10.10;90.90
25871;DHT22;13689;48.590;7.752;2023-01-13T11:48:03;10.20;90.40
25871;DHT22;13689;48.590;7.752;2023-01-13T12:05:00;10.60;88.80
25871;DHT22;13689;48.590;7.752;2023-01-13T12:22:58;11.40;86.10
25871;DHT22;13689;48.590;7.752;2023-01-13T12:25:30;11.40;85.70
25871;DHT22;13689;48.590;7.752;2023-01-13T12:27:58;11.40;85.40
25871;DHT22;13689;48.590;7.752;2023-01-13T12:30:26;11.40;85.30
25871;DHT22;13689;48.590;7.752;2023-01-13T12:32:58;11.40;85.20
25871;DHT22;13689;48.590;7.752;2023-01-13T12:35:44;11.50;84.80
25871;DHT22;13689;48.590;7.752;2023-01-13T12:38:35;11.60;84.80
25871;DHT22;13689;48.590;7.752;2023-01-13T12:41:14;11.50;83.60
25871;DHT22;13689;48.590;7.752;2023-01-13T12:43:47;11.50;83.20
25871;DHT22;13689;48.590;7.752;2023-01-13T12:51:28;11.90;82.60
25871;DHT22;13689;48.590;7.752;2023-01-13T12:53:54;11.90;82.20
25871;DHT22;13689;48.590;7.752;2023-01-13T12:58:49;11.90;81.50
25871;DHT22;13689;48.590;7.752;2023-01-13T13:01:15;11.90;80.90
25871;DHT22;13689;48.590;7.752;2023-01-13T13:03:41;12.00;80.70
25871;DHT22;13689;48.590;7.752;2023-01-13T13:06:29;12.00;80.40
25871;DHT22;13689;48.590;7.752;2023-01-13T13:09:05;11.90;80.20
25871;DHT22;13689;48.590;7.752;2023-01-13T13:11:46;11.90;80.10
25871;DHT22;13689;48.590;7.752;2023-01-13T13:19:50;11.90;79.20
25871;DHT22;13689;48.590;7.752;2023-01-13T13:27:44;12.30;78.10
25871;DHT22;13689;48.590;7.752;2023-01-13T13:30:16;12.40;77.60
25871;DHT22;13689;48.590;7.752;2023-01-13T13:33:10;12.60;77.00
25871;DHT22;13689;48.590;7.752;2023-01-13T13:36:01;12.70;76.30
25871;DHT22;13689;48.590;7.752;2023-01-13T13:41:35;12.40;75.40
25871;DHT22;13689;48.590;7.752;2023-01-13T13:44:28;12.20;75.00
25871;DHT22;13689;48.590;7.752;2023-01-13T13:47:13;12.20;74.80
25871;DHT22;13689;48.590;7.752;2023-01-13T13:49:44;11.90;74.40
25871;DHT22;13689;48.590;7.752;2023-01-13T13:52:35;11.80;74.60
25871;DHT22;13689;48.590;7.752;2023-01-13T13:55:08;11.70;74.80
25871;DHT22;13689;48.590;7.752;2023-01-13T13:57:38;11.60;75.00
25871;DHT22;13689;48.590;7.752;2023-01-13T14:00:34;11.80;75.00
25871;DHT22;13689;48.590;7.752;2023-01-13T14:03:14;12.00;74.70
25871;DHT22;13689;48.590;7.752;2023-01-13T14:05:53;12.20;74.10
25871;DHT22;13689;48.590;7.752;2023-01-13T14:08:20;12.30;73.70
25871;DHT22;13689;48.590;7.752;2023-01-13T14:10:45;12.20;73.50
25871;DHT22;13689;48.590;7.752;2023-01-13T14:13:21;12.00;73.60
25871;DHT22;13689;48.590;7.752;2023-01-13T14:16:09;11.90;73.90
25871;DHT22;13689;48.590;7.752;2023-01-13T14:18:44;11.70;74.10
25871;DHT22;13689;48.590;7.752;2023-01-13T14:21:25;11.60;74.20
25871;DHT22;13689;48.590;7.752;2023-01-13T14:24:12;11.50;74.10
25871;DHT22;13689;48.590;7.752;2023-01-13T14:26:39;11.40;75.00
25871;DHT22;13689;48.590;7.752;2023-01-13T14:29:06;11.30;74.10
25871;DHT22;13689;48.590;7.752;2023-01-13T14:31:34;11.30;74.80
25871;DHT22;13689;48.590;7.752;2023-01-13T14:34:03;11.20;73.80
25871;DHT22;13689;48.590;7.752;2023-01-13T14:46:42;11.00;73.50
25871;DHT22;13689;48.590;7.752;2023-01-13T14:49:22;11.00;73.50
25871;DHT22;13689;48.590;7.752;2023-01-13T14:51:51;10.90;73.50
25871;DHT22;13689;48.590;7.752;2023-01-13T14:54:43;10.90;73.60
25871;DHT22;13689;48.590;7.752;2023-01-13T14:57:30;10.80;73.60
25871;DHT22;13689;48.590;7.752;2023-01-13T15:10:52;10.80;73.20
25871;DHT22;13689;48.590;7.752;2023-01-13T15:15:56;10.80;73.10
25871;DHT22;13689;48.590;7.752;2023-01-13T15:18:22;10.70;73.00
25871;DHT22;13689;48.590;7.752;2023-01-13T15:20:48;10.70;73.00
25871;DHT22;13689;48.590;7.752;2023-01-13T15:23:16;10.60;73.00
25871;DHT22;13689;48.590;7.752;2023-01-13T15:25:43;10.60;73.00
25871;DHT22;13689;48.590;7.752;2023-01-13T15:28:18;10.60;73.10
25871;DHT22;13689;48.590;7.752;2023-01-13T15:30:45;10.50;73.20
25871;DHT22;13689;48.590;7.752;2023-01-13T15:33:12;10.50;73.30
25871;DHT22;13689;48.590;7.752;2023-01-13T15:35:44;10.40;73.40
25871;DHT22;13689;48.590;7.752;2023-01-13T15:38:16;10.40;73.70
25871;DHT22;13689;48.590;7.752;2023-01-13T15:40:42;10.50;73.80
25871;DHT22;13689;48.590;7.752;2023-01-13T15:43:20;10.50;73.70
25871;DHT22;13689;48.590;7.752;2023-01-13T15:46:15;10.50;73.60
25871;DHT22;13689;48.590;7.752;2023-01-13T15:49:15;10.50;73.60
25871;DHT22;13689;48.590;7.752;2023-01-13T15:51:43;10.50;73.60
25871;DHT22;13689;48.590;7.752;2023-01-13T15:54:10;10.50;73.70
25871;DHT22;13689;48.590;7.752;2023-01-13T15:56:37;10.50;74.00
25871;DHT22;13689;48.590;7.752;2023-01-13T15:59:04;10.50;74.00
25871;DHT22;13689;48.590;7.752;2023-01-13T16:01:30;10.50;74.20
25871;DHT22;13689;48.590;7.752;2023-01-13T16:03:56;10.40;74.30
25871;DHT22;13689;48.590;7.752;2023-01-13T16:06:27;10.40;74.50
25871;DHT22;13689;48.590;7.752;2023-01-13T16:08:53;10.40;74.80
25871;DHT22;13689;48.590;7.752;2023-01-13T16:11:19;10.30;74.90
25871;DHT22;13689;48.590;7.752;2023-01-13T16:13:44;10.30;75.10
25871;DHT22;13689;48.590;7.752;2023-01-13T16:16:22;10.40;75.30
25871;DHT22;13689;48.590;7.752;2023-01-13T16:18:49;10.30;75.30
25871;DHT22;13689;48.590;7.752;2023-01-13T16:21:15;10.30;75.40
25871;DHT22;13689;48.590;7.752;2023-01-13T16:23:41;10.30;75.40
25871;DHT22;13689;48.590;7.752;2023-01-13T16:26:17;10.30;75.10
25871;DHT22;13689;48.590;7.752;2023-01-13T16:28:44;10.20;75.10
25871;DHT22;13689;48.590;7.752;2023-01-13T16:31:35;10.20;75.10
25871;DHT22;13689;48.590;7.752;2023-01-13T16:34:03;10.20;75.20
25871;DHT22;13689;48.590;7.752;2023-01-13T16:36:32;10.20;75.10
25871;DHT22;13689;48.590;7.752;2023-01-13T16:38:59;10.10;75.90
25871;DHT22;13689;48.590;7.752;2023-01-13T16:41:24;10.10;75.10
25871;DHT22;13689;48.590;7.752;2023-01-13T16:43:50;10.10;75.20
25871;DHT22;13689;48.590;7.752;2023-01-13T16:46:35;10.10;75.20
25871;DHT22;13689;48.590;7.752;2023-01-13T16:49:03;10.10;75.30
25871;DHT22;13689;48.590;7.752;2023-01-13T16:51:29;10.00;74.90
25871;DHT22;13689;48.590;7.752;2023-01-13T16:53:55;10.00;74.60
25871;DHT22;13689;48.590;7.752;2023-01-13T16:56:29;10.00;74.10
25871;DHT22;13689;48.590;7.752;2023-01-13T16:59:06;10.00;73.90
25871;DHT22;13689;48.590;7.752;2023-01-13T17:01:35;10.00;73.80
25871;DHT22;13689;48.590;7.752;2023-01-13T17:04:02;9.90;73.40
25871;DHT22;13689;48.590;7.752;2023-01-13T17:06:33;9.90;73.50
25871;DHT22;13689;48.590;7.752;2023-01-13T17:09:20;9.80;73.50
25871;DHT22;13689;48.590;7.752;2023-01-13T17:11:46;9.70;73.70
25871;DHT22;13689;48.590;7.752;2023-01-13T17:14:12;9.60;73.80
25871;DHT22;13689;48.590;7.752;2023-01-13T17:16:39;9.50;74.00
25871;DHT22;13689;48.590;7.752;2023-01-13T17:19:05;9.40;74.20
25871;DHT22;13689;48.590;7.752;2023-01-13T17:21:31;9.30;74.50
25871;DHT22;13689;48.590;7.752;2023-01-13T17:23:57;9.30;74.90
25871;DHT22;13689;48.590;7.752;2023-01-13T17:26:33;9.30;75.00
25871;DHT22;13689;48.590;7.752;2023-01-13T17:29:03;9.20;75.10
25871;DHT22;13689;48.590;7.752;2023-01-13T17:31:29;9.20;76.10
25871;DHT22;13689;48.590;7.752;2023-01-13T17:33:54;9.10;75.30
25871;DHT22;13689;48.590;7.752;2023-01-13T17:36:20;9.10;75.50
25871;DHT22;13689;48.590;7.752;2023-01-13T17:38:46;9.10;75.70
25871;DHT22;13689;48.590;7.752;2023-01-13T17:41:12;9.10;75.80
25871;DHT22;13689;48.590;7.752;2023-01-13T17:43:37;9.00;75.80
25871;DHT22;13689;48.590;7.752;2023-01-13T17:46:11;9.00;76.10
25871;DHT22;13689;48.590;7.752;2023-01-13T17:48:37;9.00;76.10
25871;DHT22;13689;48.590;7.752;2023-01-13T17:51:03;9.10;76.30
25871;DHT22;13689;48.590;7.752;2023-01-13T17:53:32;9.10;76.30
25871;DHT22;13689;48.590;7.752;2023-01-13T17:55:58;9.10;76.30
25871;DHT22;13689;48.590;7.752;2023-01-13T17:58:23;9.10;76.30
25871;DHT22;13689;48.590;7.752;2023-01-13T18:00:49;9.10;76.40
25871;DHT22;13689;48.590;7.752;2023-01-13T18:03:16;9.10;76.40
25871;DHT22;13689;48.590;7.752;2023-01-13T18:05:42;9.10;76.30
25871;DHT22;13689;48.590;7.752;2023-01-13T18:08:09;9.10;76.40
25871;DHT22;13689;48.590;7.752;2023-01-13T18:10:34;9.10;76.60
25871;DHT22;13689;48.590;7.752;2023-01-13T18:13:01;9.00;76.80